N216TB TNCM-TFFJ
Flight info
| Callsign | N216TB |
|---|---|
| Flight time | 0h 12m |
| Altitude | 2500 |
| Route | MODOR |
| Aircraft | K100/L-L/C |
Departure
| Time | 2026-05-05 13:36 |
|---|---|
| Airport | Princess Juliana International Airport (TNCM) |
Arrival
| Time | 2026-05-05 13:49 |
|---|---|
| Airport | St. Jean Airport (TFFJ) |
| Time | Latitude | Longitude | Altitude | Speed | Heading |
|---|---|---|---|---|---|
| 2026-05-05 13:24 | 18.04178 | -63.11239 | 20 ft | 0 kts | 171° |
| 2026-05-05 13:34 | 18.04159 | -63.11237 | 20 ft | 10 kts | 176° |
| 2026-05-05 13:34 | 18.04135 | -63.11285 | 20 ft | 11 kts | 234° |
| 2026-05-05 13:34 | 18.04109 | -63.11290 | 20 ft | 0 kts | 168° |
| 2026-05-05 13:35 | 18.04107 | -63.11290 | 20 ft | 2 kts | 173° |
| 2026-05-05 13:35 | 18.04061 | -63.11277 | 20 ft | 11 kts | 139° |
| 2026-05-05 13:35 | 18.04046 | -63.11223 | 20 ft | 0 kts | 78° |
| 2026-05-05 13:35 | 18.04050 | -63.11198 | 20 ft | 24 kts | 80° |
| 2026-05-05 13:36 | 18.04122 | -63.10772 | 49 ft | 86 kts | 76° |
| 2026-05-05 13:36 | 18.04279 | -63.10089 | 352 ft | 103 kts | 71° |
| 2026-05-05 13:36 | 18.04266 | -63.09340 | 803 ft | 110 kts | 122° |
| 2026-05-05 13:36 | 18.03591 | -63.09009 | 1294 ft | 115 kts | 164° |
| 2026-05-05 13:37 | 18.02764 | -63.08880 | 1727 ft | 122 kts | 163° |
| 2026-05-05 13:37 | 18.01894 | -63.09016 | 2214 ft | 137 kts | 207° |
| 2026-05-05 13:37 | 18.01116 | -63.09610 | 2525 ft | 146 kts | 207° |
| 2026-05-05 13:37 | 18.00143 | -63.10048 | 2532 ft | 157 kts | 187° |
| 2026-05-05 13:38 | 17.99061 | -63.10066 | 2538 ft | 156 kts | 167° |
| 2026-05-05 13:38 | 17.97991 | -63.09903 | 2538 ft | 156 kts | 167° |
| 2026-05-05 13:38 | 17.96921 | -63.09732 | 2537 ft | 156 kts | 165° |
| 2026-05-05 13:38 | 17.95854 | -63.09557 | 2539 ft | 158 kts | 165° |
| 2026-05-05 13:39 | 17.94764 | -63.09381 | 2536 ft | 159 kts | 165° |
| 2026-05-05 13:39 | 17.93677 | -63.09204 | 2534 ft | 158 kts | 167° |
| 2026-05-05 13:39 | 17.92599 | -63.09030 | 2533 ft | 157 kts | 166° |
| 2026-05-05 13:39 | 17.91512 | -63.08852 | 2531 ft | 159 kts | 166° |
| 2026-05-05 13:40 | 17.90417 | -63.08672 | 2531 ft | 159 kts | 163° |
| 2026-05-05 13:40 | 17.89416 | -63.08271 | 2475 ft | 154 kts | 145° |
| 2026-05-05 13:40 | 17.88624 | -63.07574 | 2277 ft | 143 kts | 129° |
| 2026-05-05 13:40 | 17.88110 | -63.06719 | 2077 ft | 136 kts | 114° |
| 2026-05-05 13:41 | 17.87863 | -63.05792 | 1877 ft | 133 kts | 100° |
| 2026-05-05 13:41 | 17.87871 | -63.04820 | 1682 ft | 134 kts | 85° |
| 2026-05-05 13:41 | 17.88001 | -63.03856 | 1476 ft | 133 kts | 85° |
| 2026-05-05 13:41 | 17.88119 | -63.02890 | 1285 ft | 133 kts | 85° |
| 2026-05-05 13:42 | 17.88237 | -63.01940 | 1226 ft | 127 kts | 85° |
| 2026-05-05 13:42 | 17.88351 | -63.01058 | 1227 ft | 118 kts | 86° |
| 2026-05-05 13:42 | 17.88452 | -63.00234 | 1234 ft | 111 kts | 87° |
| 2026-05-05 13:42 | 17.88552 | -62.99449 | 1231 ft | 106 kts | 86° |
| 2026-05-05 13:43 | 17.88647 | -62.98694 | 1234 ft | 106 kts | 86° |
| 2026-05-05 13:43 | 17.88738 | -62.97965 | 1235 ft | 93 kts | 86° |
| 2026-05-05 13:43 | 17.88823 | -62.97327 | 1230 ft | 86 kts | 88° |
| 2026-05-05 13:43 | 17.88900 | -62.96714 | 1227 ft | 82 kts | 90° |
| 2026-05-05 13:44 | 17.88961 | -62.96153 | 1236 ft | 75 kts | 90° |
| 2026-05-05 13:44 | 17.89031 | -62.95604 | 1239 ft | 77 kts | 86° |
| 2026-05-05 13:44 | 17.89105 | -62.95027 | 1233 ft | 82 kts | 88° |
| 2026-05-05 13:44 | 17.89180 | -62.94435 | 1238 ft | 82 kts | 87° |
| 2026-05-05 13:45 | 17.89256 | -62.93837 | 1237 ft | 83 kts | 86° |
| 2026-05-05 13:45 | 17.89332 | -62.93237 | 1234 ft | 84 kts | 87° |
| 2026-05-05 13:45 | 17.89408 | -62.92633 | 1236 ft | 83 kts | 85° |
| 2026-05-05 13:45 | 17.89484 | -62.92029 | 1235 ft | 84 kts | 85° |
| 2026-05-05 13:46 | 17.89560 | -62.91438 | 1241 ft | 80 kts | 88° |
| 2026-05-05 13:46 | 17.89635 | -62.90853 | 1232 ft | 81 kts | 84° |
| 2026-05-05 13:46 | 17.89709 | -62.90255 | 1238 ft | 84 kts | 88° |
| 2026-05-05 13:46 | 17.89786 | -62.89630 | 1234 ft | 87 kts | 88° |
| 2026-05-05 13:47 | 17.89867 | -62.88999 | 1196 ft | 89 kts | 85° |
| 2026-05-05 13:47 | 17.89981 | -62.88388 | 1073 ft | 79 kts | 83° |
| 2026-05-05 13:47 | 17.90106 | -62.87882 | 943 ft | 72 kts | 81° |
| 2026-05-05 13:47 | 17.90248 | -62.87367 | 819 ft | 76 kts | 80° |
| 2026-05-05 13:48 | 17.90350 | -62.86860 | 659 ft | 68 kts | 83° |
| 2026-05-05 13:48 | 17.90366 | -62.86377 | 536 ft | 63 kts | 87° |
| 2026-05-05 13:48 | 17.90364 | -62.85926 | 458 ft | 61 kts | 85° |
| 2026-05-05 13:48 | 17.90404 | -62.85483 | 374 ft | 63 kts | 88° |
| 2026-05-05 13:49 | 17.90420 | -62.85008 | 240 ft | 64 kts | 90° |
| 2026-05-05 13:49 | 17.90449 | -62.84600 | 93 ft | 41 kts | 129° |